Time;durP1;ratioP1;P1;durP2;ratioP2;P2;SDS_P1;SDS_P2;PMS_P1;PMS_P2;Temp;Humidity;BMP_temperature;BMP_pressure;BME280_temperature;BME280_humidity;BME280_pressure;Samples;Min_cycle;Max_cycle;Signal;HPM_P1;HPM_P2
2023/02/14 00:02:03;;;;;;;;;;;;;;;12.86;44.12;102803.78;4962827;28;98087;-69
2023/02/14 00:04:28;;;;;;;;;;;;;;;12.85;44.33;102798.56;4944860;28;120961;-69
2023/02/14 00:06:54;;;;;;;;;;;;;;;12.84;44.10;102800.47;4962309;28;122767;-69
2023/02/14 00:09:20;;;;;;;;;;;;;;;12.85;43.94;102796.72;4958465;28;127522;-68
2023/02/14 00:11:46;;;;;;;;;;;;;;;12.85;44.14;102801.28;4962006;28;117975;-68
2023/02/14 00:16:57;;;;;;;;;;;;;;;12.84;44.25;102792.34;4944436;28;98038;-67
2023/02/14 00:19:23;;;;;;;;;;;;;;;12.83;44.34;102795.28;4945116;28;128348;-69
2023/02/14 00:21:49;;;;;;;;;;;;;;;12.83;44.27;102798.00;4961881;28;111132;-68
2023/02/14 00:24:17;;;;;;;;;;;;;;;12.83;44.28;102792.59;4960965;28;105168;-67
2023/02/14 00:26:43;;;;;;;;;;;;;;;12.82;44.28;102796.34;4979543;27;98183;-69
2023/02/14 00:29:11;;;;;;;;;;;;;;;12.82;44.22;102794.47;4960789;28;100255;-67
2023/02/14 00:31:37;;;;;;;;;;;;;;;12.82;44.29;102789.06;4960998;28;98139;-69
2023/02/14 00:34:03;;;;;;;;;;;;;;;12.81;44.05;102782.00;4943460;28;127223;-69
2023/02/14 00:36:29;;;;;;;;;;;;;;;12.81;44.05;102784.69;4977212;27;121310;-69
2023/02/14 00:38:55;;;;;;;;;;;;;;;12.82;44.28;102790.94;4956568;28;129542;-69
2023/02/14 00:41:21;;;;;;;;;;;;;;;12.81;44.28;102781.13;4979518;27;127124;-70
2023/02/14 00:43:48;;;;;;;;;;;;;;;12.81;44.21;102778.44;4944016;28;112272;-68
2023/02/14 00:46:14;;;;;;;;;;;;;;;12.80;44.07;102785.72;4942842;28;111464;-70
2023/02/14 00:48:40;;;;;;;;;;;;;;;12.80;44.22;102790.31;4961617;28;124569;-68
2023/02/14 00:51:06;;;;;;;;;;;;;;;12.79;44.39;102789.50;4942331;28;124107;-70
2023/02/14 00:53:32;;;;;;;;;;;;;;;12.78;44.16;102785.97;4942147;28;117593;-70
2023/02/14 00:55:58;;;;;;;;;;;;;;;12.78;44.24;102791.38;4958856;28;120551;-68
2023/02/14 00:58:24;;;;;;;;;;;;;;;12.78;44.21;102794.09;4943302;27;129249;-70
2023/02/14 01:00:50;;;;;;;;;;;;;;;12.77;44.29;102787.03;4958522;28;116681;-68
2023/02/14 01:03:16;;;;;;;;;;;;;;;12.77;44.28;102781.63;4948155;28;109356;-70
2023/02/14 01:05:42;;;;;;;;;;;;;;;12.76;44.21;102777.22;4944621;28;99562;-69
2023/02/14 01:08:08;;;;;;;;;;;;;;;12.76;44.21;102774.53;4960085;28;98301;-70
2023/02/14 01:10:35;;;;;;;;;;;;;;;12.76;44.22;102779.13;4945180;28;107963;-69
2023/02/14 01:13:01;;;;;;;;;;;;;;;12.75;44.12;102783.69;4954490;28;98164;-68
2023/02/14 01:15:28;;;;;;;;;;;;;;;12.76;44.14;102779.94;4961101;28;122835;-69
2023/02/14 01:17:54;;;;;;;;;;;;;;;12.76;43.96;102782.66;4941322;28;123482;-68
2023/02/14 01:20:20;;;;;;;;;;;;;;;12.75;44.15;102780.19;4960522;28;128142;-68
2023/02/14 01:22:46;;;;;;;;;;;;;;;12.76;44.18;102779.13;4945227;28;98140;-68
2023/02/14 01:25:11;;;;;;;;;;;;;;;12.75;44.31;102775.59;4976866;27;123910;-69
2023/02/14 01:27:37;;;;;;;;;;;;;;;12.76;44.09;102768.28;4961543;28;128819;-69
2023/02/14 01:30:04;;;;;;;;;;;;;;;12.75;44.34;102766.66;4960191;28;99880;-67
2023/02/14 01:32:31;;;;;;;;;;;;;;;12.75;44.22;102764.75;4958183;28;111683;-67
2023/02/14 01:34:57;;;;;;;;;;;;;;;12.74;44.24;102763.13;4941922;28;117443;-68
2023/02/14 01:37:23;;;;;;;;;;;;;;;12.73;44.11;102766.88;4974987;27;102840;-69
2023/02/14 01:39:49;;;;;;;;;;;;;;;12.74;44.16;102765.00;4959454;28;126362;-70
2023/02/14 01:42:15;;;;;;;;;;;;;;;12.74;44.27;102767.72;4961040;28;127672;-68
2023/02/14 01:44:43;;;;;;;;;;;;;;;12.73;44.00;102760.63;4961047;28;110634;-68
2023/02/14 01:47:09;;;;;;;;;;;;;;;12.73;44.23;102755.22;4976586;28;98738;-68
2023/02/14 01:49:38;;;;;;;;;;;;;;;12.72;44.13;102758.97;4959233;28;127808;-67
2023/02/14 01:52:19;;;;;;;;;;;;;;;12.72;44.26;102762.50;4940979;28;127698;-67
2023/02/14 01:54:48;;;;;;;;;;;;;;;12.71;44.36;102757.31;4961145;28;97894;-68
2023/02/14 01:57:14;;;;;;;;;;;;;;;12.71;44.27;102754.63;4958175;28;98469;-69
2023/02/14 01:59:44;;;;;;;;;;;;;;;12.71;44.21;102754.63;4941164;28;117176;-70
2023/02/14 02:02:10;;;;;;;;;;;;;;;12.70;44.06;102758.38;4960526;28;123731;-68
2023/02/14 02:04:38;;;;;;;;;;;;;;;12.70;44.06;102752.97;4942994;28;121346;-68
2023/02/14 02:07:09;;;;;;;;;;;;;;;12.71;43.83;102754.63;4960078;28;112148;-67
2023/02/14 02:09:38;;;;;;;;;;;;;;;12.69;44.15;102748.59;4957935;28;113529;-68
2023/02/14 02:12:04;;;;;;;;;;;;;;;12.69;44.09;102749.44;4959722;28;110362;-69
2023/02/14 02:14:29;;;;;;;;;;;;;;;12.68;44.08;102753.19;4922176;28;98234;-68
2023/02/14 02:17:21;;;;;;;;;;;;;;;12.67;44.12;102746.13;4944724;28;97929;-68
2023/02/14 02:20:31;;;;;;;;;;;;;;;12.68;44.01;102746.94;4978241;27;99064;-68
2023/02/14 02:23:27;;;;;;;;;;;;;;;12.68;44.08;102746.94;4974072;27;98276;-70
2023/02/14 02:26:12;;;;;;;;;;;;;;;12.67;44.33;102746.13;4978881;27;98249;-69
2023/02/14 02:28:57;;;;;;;;;;;;;;;12.67;44.01;102748.84;4976149;27;98122;-69
2023/02/14 02:31:41;;;;;;;;;;;;;;;12.67;44.25;102738.00;4977956;28;98334;-69
2023/02/14 02:34:06;;;;;;;;;;;;;;;12.66;44.15;102743.66;4975741;27;98029;-70
2023/02/14 02:36:54;;;;;;;;;;;;;;;12.67;44.21;102745.31;4962369;28;98050;-68
2023/02/14 02:39:35;;;;;;;;;;;;;;;12.66;44.12;102744.47;4978147;27;98707;-69
2023/02/14 02:42:30;;;;;;;;;;;;;;;12.65;44.21;102744.69;4977833;27;107670;-69
2023/02/14 02:45:06;;;;;;;;;;;;;;;12.65;43.99;102740.09;4961176;28;118505;-69
2023/02/14 02:48:05;;;;;;;;;;;;;;;12.64;44.00;102749.28;4958241;28;98396;-68
2023/02/14 02:53:59;;;;;;;;;;;;;;;12.63;44.08;102742.22;4977489;27;98244;-68
2023/02/14 02:56:47;;;;;;;;;;;;;;;12.62;44.09;102743.28;4959448;28;124158;-67
2023/02/14 02:59:30;;;;;;;;;;;;;;;12.63;44.24;102744.94;4961065;28;97808;-69
2023/02/14 03:02:02;;;;;;;;;;;;;;;12.63;44.10;102744.94;4959762;28;127871;-68
2023/02/14 03:04:51;;;;;;;;;;;;;;;12.63;44.32;102744.09;4944890;28;118861;-69
2023/02/14 03:07:37;;;;;;;;;;;;;;;12.61;44.13;102741.59;4950688;28;98105;-68
2023/02/14 03:10:15;;;;;;;;;;;;;;;12.62;44.35;102743.28;4979283;28;98998;-68
2023/02/14 03:13:08;;;;;;;;;;;;;;;12.62;44.08;102742.47;4930611;28;99954;-68
2023/02/14 03:16:13;;;;;;;;;;;;;;;12.61;44.12;102744.31;4980756;27;99205;-70
2023/02/14 03:18:49;;;;;;;;;;;;;;;12.60;44.20;102736.44;4950697;28;99104;-70
2023/02/14 03:21:25;;;;;;;;;;;;;;;12.61;44.10;102752.44;4960543;28;99494;-70
2023/02/14 03:24:12;;;;;;;;;;;;;;;12.61;44.19;102740.78;4958973;28;119182;-68
2023/02/14 03:27:16;;;;;;;;;;;;;;;12.62;44.27;102742.47;4941343;28;124071;-69
2023/02/14 03:30:11;;;;;;;;;;;;;;;12.60;44.17;102745.38;4980173;27;98508;-68
2023/02/14 03:32:41;;;;;;;;;;;;;;;12.61;44.28;102751.59;4934492;28;99573;-68
2023/02/14 03:35:31;;;;;;;;;;;;;;;12.61;44.10;102752.44;4963621;28;107771;-68
2023/02/14 03:38:20;;;;;;;;;;;;;;;12.59;44.34;102757.25;4941468;28;127445;-71
2023/02/14 03:40:48;;;;;;;;;;;;;;;12.60;44.22;102750.78;4978204;28;106226;-70
2023/02/14 03:43:23;;;;;;;;;;;;;;;12.59;44.20;102741.03;4960787;28;98206;-68
2023/02/14 03:45:53;;;;;;;;;;;;;;;12.61;44.27;102746.19;4942604;28;128187;-68
2023/02/14 03:48:19;;;;;;;;;;;;;;;12.59;44.13;102743.72;4958966;28;123445;-68
2023/02/14 03:50:46;;;;;;;;;;;;;;;12.60;44.18;102744.56;4964191;28;98231;-69
2023/02/14 03:53:12;;;;;;;;;;;;;;;12.59;44.17;102751.84;4962666;28;98430;-68
2023/02/14 03:55:43;;;;;;;;;;;;;;;12.59;44.21;102753.72;4946456;28;102904;-68
2023/02/14 03:58:15;;;;;;;;;;;;;;;12.58;44.03;102752.91;4962479;28;120186;-70
2023/02/14 04:00:41;;;;;;;;;;;;;;;12.59;44.21;102756.44;4960261;28;116893;-68
2023/02/14 04:03:11;;;;;;;;;;;;;;;12.58;44.21;102747.50;4959788;28;100110;-68
2023/02/14 04:05:40;;;;;;;;;;;;;;;12.58;44.30;102752.09;4962140;28;131494;-70
2023/02/14 04:08:06;;;;;;;;;;;;;;;12.59;44.13;102756.44;4946164;28;99568;-69
2023/02/14 04:10:32;;;;;;;;;;;;;;;12.58;44.36;102752.91;4980434;27;125519;-70
2023/02/14 04:12:58;;;;;;;;;;;;;;;12.57;44.39;102743.09;4960910;28;99583;-70
2023/02/14 04:15:24;;;;;;;;;;;;;;;12.57;44.12;102745.00;4961037;28;128198;-68
2023/02/14 04:20:35;;;;;;;;;;;;;;;12.57;44.16;102745.00;4963267;28;98362;-69
2023/02/14 04:23:02;;;;;;;;;;;;;;;12.57;44.04;102737.69;4963381;28;98003;-68
2023/02/14 04:25:27;;;;;;;;;;;;;;;12.57;44.36;102739.59;4961324;28;98064;-70
2023/02/14 04:27:53;;;;;;;;;;;;;;;12.57;44.04;102742.28;4945516;28;124906;-68
2023/02/14 04:30:21;;;;;;;;;;;;;;;12.57;44.32;102736.88;4958047;28;128614;-70
2023/02/14 04:32:47;;;;;;;;;;;;;;;12.57;44.20;102740.41;4946217;28;98223;-67
2023/02/14 04:35:13;;;;;;;;;;;;;;;12.56;44.12;102736.06;4942024;28;124813;-70
2023/02/14 04:37:39;;;;;;;;;;;;;;;12.57;44.34;102739.59;4944963;28;97923;-70
2023/02/14 04:40:06;;;;;;;;;;;;;;;12.57;44.55;102735.00;4945254;28;98082;-68
2023/02/14 04:42:32;;;;;;;;;;;;;;;12.57;44.19;102734.16;4960276;28;109334;-69
2023/02/14 04:44:58;;;;;;;;;;;;;;;12.56;44.08;102725.22;4945740;28;98391;-67
2023/02/14 04:47:24;;;;;;;;;;;;;;;12.57;44.34;102731.47;4960919;28;130499;-67
2023/02/14 04:49:50;;;;;;;;;;;;;;;12.57;44.21;102726.88;4960055;28;123076;-69
2023/02/14 04:52:15;;;;;;;;;;;;;;;12.58;44.12;102723.16;4977282;28;123164;-69
2023/02/14 04:54:41;;;;;;;;;;;;;;;12.58;44.11;102722.31;4945331;28;128054;-69
2023/02/14 04:57:07;;;;;;;;;;;;;;;12.59;44.27;102715.84;4958707;28;104212;-68
2023/02/14 04:59:33;;;;;;;;;;;;;;;12.58;44.23;102720.44;4944470;28;128259;-67
2023/02/14 05:01:59;;;;;;;;;;;;;;;12.58;44.27;102720.44;4925640;28;122785;-67
2023/02/14 05:04:25;;;;;;;;;;;;;;;12.58;44.16;102711.50;4962204;28;98020;-67
2023/02/14 05:06:51;;;;;;;;;;;;;;;12.57;44.39;102712.53;4960965;28;127850;-67
2023/02/14 05:09:17;;;;;;;;;;;;;;;12.58;44.18;102715.03;4943008;28;115288;-68
2023/02/14 05:11:43;;;;;;;;;;;;;;;12.59;44.35;102705.03;4945618;28;98046;-69
2023/02/14 05:14:09;;;;;;;;;;;;;;;12.59;44.06;102702.31;4959148;28;128589;-69
2023/02/14 05:16:35;;;;;;;;;;;;;;;12.59;44.19;102696.91;4961976;28;98827;-68
2023/02/14 05:19:01;;;;;;;;;;;;;;;12.58;44.13;102704.19;4958543;28;125861;-70
2023/02/14 05:21:27;;;;;;;;;;;;;;;12.59;44.40;102708.56;4945037;28;121964;-68
2023/02/14 05:23:53;;;;;;;;;;;;;;;12.59;44.33;102705.03;4947206;28;98441;-69
2023/02/14 05:26:19;;;;;;;;;;;;;;;12.59;44.21;102708.56;4958823;28;123024;-67
2023/02/14 05:28:45;;;;;;;;;;;;;;;12.58;44.18;102706.91;4958195;28;125549;-69
2023/02/14 05:31:11;;;;;;;;;;;;;;;12.58;44.01;102697.97;4978978;28;122864;-68
2023/02/14 05:33:37;;;;;;;;;;;;;;;12.59;44.05;102702.31;4944603;28;127196;-67
2023/02/14 05:36:03;;;;;;;;;;;;;;;12.59;44.26;102699.63;4942329;28;97993;-69
2023/02/14 05:38:29;;;;;;;;;;;;;;;12.58;44.22;102697.97;4959134;28;105157;-67
2023/02/14 05:40:55;;;;;;;;;;;;;;;12.57;44.14;102691.72;4962363;28;98036;-68
2023/02/14 05:43:21;;;;;;;;;;;;;;;12.58;44.20;102700.69;4942608;28;128776;-70
2023/02/14 05:45:47;;;;;;;;;;;;;;;12.58;44.42;102697.97;4959793;28;128172;-70
2023/02/14 05:48:13;;;;;;;;;;;;;;;12.58;44.15;102696.09;4944694;28;126372;-70
2023/02/14 05:50:41;;;;;;;;;;;;;;;12.58;44.20;102703.38;4976015;28;98046;-70
2023/02/14 05:53:07;;;;;;;;;;;;;;;12.57;44.24;102699.81;4960898;28;98527;-67
2023/02/14 05:55:33;;;;;;;;;;;;;;;12.57;44.11;102707.13;4944619;28;98144;-69
2023/02/14 05:57:59;;;;;;;;;;;;;;;12.57;44.16;102716.06;4956818;28;126387;-70
2023/02/14 06:00:25;;;;;;;;;;;;;;;12.57;44.39;102715.22;4938304;28;120358;-69
2023/02/14 06:02:51;;;;;;;;;;;;;;;12.56;44.20;102714.41;4941855;28;129449;-68
2023/02/14 06:05:18;;;;;;;;;;;;;;;12.57;44.35;102713.34;4956877;28;126490;-68
2023/02/14 06:07:49;;;;;;;;;;;;;;;12.57;44.07;102713.34;4961302;28;99389;-70
2023/02/14 06:10:16;;;;;;;;;;;;;;;12.57;44.13;102716.06;4946740;28;98058;-69
2023/02/14 06:12:42;;;;;;;;;;;;;;;12.57;44.19;102712.53;4958057;28;105481;-68
2023/02/14 06:15:08;;;;;;;;;;;;;;;12.57;44.08;102716.06;4952077;28;119512;-69
2023/02/14 06:17:34;;;;;;;;;;;;;;;12.57;44.08;102713.34;4945604;28;122925;-70
2023/02/14 06:20:00;;;;;;;;;;;;;;;12.57;44.12;102718.75;4940784;28;123062;-69
2023/02/14 06:22:25;;;;;;;;;;;;;;;12.56;44.35;102713.59;4939327;28;128592;-69
2023/02/14 06:24:51;;;;;;;;;;;;;;;12.58;44.46;102723.16;4936927;28;127268;-70
2023/02/14 06:27:17;;;;;;;;;;;;;;;12.58;44.09;102722.31;4939806;28;127356;-68
2023/02/14 06:29:43;;;;;;;;;;;;;;;12.59;44.25;102718.56;4943162;28;121937;-68
2023/02/14 06:32:09;;;;;;;;;;;;;;;12.57;43.98;102718.75;4943367;28;117996;-67
2023/02/14 06:34:35;;;;;;;;;;;;;;;12.59;44.08;102716.66;4927527;28;129289;-68
2023/02/14 06:37:01;;;;;;;;;;;;;;;12.59;44.20;102721.25;4925664;28;97851;-67
2023/02/14 06:39:27;;;;;;;;;;;;;;;12.59;44.35;102724.78;4919670;28;122500;-69
2023/02/14 06:41:53;;;;;;;;;;;;;;;12.59;44.05;102719.38;4937304;28;127061;-69
2023/02/14 06:44:19;;;;;;;;;;;;;;;12.60;44.20;102729.13;4937607;28;128190;-70
2023/02/14 06:46:45;;;;;;;;;;;;;;;12.61;44.19;102733.50;4928056;28;121121;-69
2023/02/14 06:49:10;;;;;;;;;;;;;;;12.62;43.96;102737.03;4937702;28;122717;-70
2023/02/14 06:51:36;;;;;;;;;;;;;;;12.62;44.28;102737.88;4941768;28;119844;-67
2023/02/14 06:54:02;;;;;;;;;;;;;;;12.64;44.06;102737.63;4956387;28;129005;-69
2023/02/14 06:56:28;;;;;;;;;;;;;;;12.64;44.01;102734.94;4936843;28;130365;-70
2023/02/14 06:58:54;;;;;;;;;;;;;;;12.65;44.26;102725.75;4942255;28;121917;-68
2023/02/14 07:01:20;;;;;;;;;;;;;;;12.66;43.98;102736.38;4923349;28;127646;-68
2023/02/14 07:03:46;;;;;;;;;;;;;;;12.68;44.04;102734.25;4937208;28;128375;-71
2023/02/14 07:06:12;;;;;;;;;;;;;;;12.69;44.09;102738.63;4938844;28;127851;-67
2023/02/14 07:08:38;;;;;;;;;;;;;;;12.71;44.12;102733.78;4942809;28;120954;-68
2023/02/14 07:11:04;;;;;;;;;;;;;;;12.73;44.05;102725.44;4936747;28;128930;-68
2023/02/14 07:13:29;;;;;;;;;;;;;;;12.74;44.07;102732.53;4933265;28;128894;-65
2023/02/14 07:15:56;;;;;;;;;;;;;;;12.73;44.09;102723.59;4956178;28;127774;-69
2023/02/14 07:18:22;;;;;;;;;;;;;;;12.71;43.98;102720.25;4943330;28;122323;-68
2023/02/14 07:20:49;;;;;;;;;;;;;;;12.69;44.12;102724.25;4959546;28;127756;-70
2023/02/14 07:23:15;;;;;;;;;;;;;;;12.64;44.04;102724.94;4942980;28;98554;-70
2023/02/14 07:25:41;;;;;;;;;;;;;;;12.57;43.77;102724.16;4960357;28;114343;-68
2023/02/14 07:28:07;;;;;;;;;;;;;;;12.51;44.07;102716.97;4958525;28;108060;-70
2023/02/14 07:30:32;;;;;;;;;;;;;;;12.48;44.08;102725.53;4942396;27;128073;-68
2023/02/14 07:32:58;;;;;;;;;;;;;;;12.46;44.20;102716.84;4941966;28;127910;-70
2023/02/14 07:35:24;;;;;;;;;;;;;;;12.46;44.09;102716.84;4941060;28;127323;-68
2023/02/14 07:37:50;;;;;;;;;;;;;;;12.47;44.27;102721.19;4958592;28;98096;-69
2023/02/14 07:40:17;;;;;;;;;;;;;;;12.48;44.25;102726.34;4958669;28;99105;-69
2023/02/14 07:42:43;;;;;;;;;;;;;;;12.50;44.28;102731.56;4958781;28;99688;-69
2023/02/14 07:45:09;;;;;;;;;;;;;;;12.53;44.14;102731.09;4942044;28;128949;-69
2023/02/14 07:47:35;;;;;;;;;;;;;;;12.56;44.06;102736.06;4951759;28;121866;-69
2023/02/14 07:50:00;;;;;;;;;;;;;;;12.59;44.12;102734.78;4960006;28;124140;-69
2023/02/14 07:52:26;;;;;;;;;;;;;;;12.62;44.17;102723.53;4962932;28;117324;-69
2023/02/14 07:54:52;;;;;;;;;;;;;;;12.64;44.30;102730.34;4962444;28;97979;-68
2023/02/14 07:57:18;;;;;;;;;;;;;;;12.69;44.26;102730.50;4944824;28;122285;-69
2023/02/14 07:59:44;;;;;;;;;;;;;;;12.72;43.98;102731.91;4941627;27;127403;-69
2023/02/14 08:02:11;;;;;;;;;;;;;;;12.76;44.22;102727.69;4961304;28;127587;-70
2023/02/14 08:04:37;;;;;;;;;;;;;;;12.80;44.12;102722.66;4961009;28;124230;-70
2023/02/14 08:07:02;;;;;;;;;;;;;;;12.83;44.13;102727.63;4944231;28;122384;-70
2023/02/14 08:09:28;;;;;;;;;;;;;;;12.87;43.99;102720.69;4961247;28;126576;-70
2023/02/14 08:14:40;;;;;;;;;;;;;;;12.95;44.05;102723.91;4960143;28;98083;-69
2023/02/14 08:17:07;;;;;;;;;;;;;;;13.00;43.91;102724.03;4960948;28;109463;-70
2023/02/14 08:19:33;;;;;;;;;;;;;;;13.03;44.25;102726.28;4946832;28;99627;-70
2023/02/14 08:21:59;;;;;;;;;;;;;;;13.08;44.12;102724.78;4963714;28;106429;-70
2023/02/14 08:24:25;;;;;;;;;;;;;;;13.12;44.03;102723.25;4945364;28;129057;-70
2023/02/14 08:26:51;;;;;;;;;;;;;;;13.15;43.73;102726.34;4963339;28;122364;-69
2023/02/14 08:29:17;;;;;;;;;;;;;;;13.20;43.82;102722.94;4976290;27;98546;-69
2023/02/14 08:31:43;;;;;;;;;;;;;;;13.24;43.71;102732.28;4945411;28;113522;-70
2023/02/14 08:34:09;;;;;;;;;;;;;;;13.27;44.07;102729.13;4959794;28;107685;-69
2023/02/14 08:36:34;;;;;;;;;;;;;;;13.32;43.91;102734.66;4961588;28;112686;-69
2023/02/14 08:39:01;;;;;;;;;;;;;;;13.37;43.90;102721.28;4961888;28;99686;-70
2023/02/14 08:41:27;;;;;;;;;;;;;;;13.40;43.92;102728.94;4926641;28;97994;-70
2023/02/14 08:43:53;;;;;;;;;;;;;;;13.46;43.84;102738.00;4961444;28;128220;-70
2023/02/14 08:46:19;;;;;;;;;;;;;;;13.50;43.90;102736.50;4976672;27;122013;-70
2023/02/14 08:48:45;;;;;;;;;;;;;;;13.55;43.97;102733.91;4960879;28;128385;-70
2023/02/14 08:51:12;;;;;;;;;;;;;;;13.59;43.93;102737.78;4978080;27;128284;-69
2023/02/14 08:53:39;;;;;;;;;;;;;;;13.63;43.82;102747.09;4961501;28;118534;-69
2023/02/14 08:56:06;;;;;;;;;;;;;;;13.67;44.07;102742.88;4952084;28;98207;-69
2023/02/14 08:58:32;;;;;;;;;;;;;;;13.72;43.77;102744.91;4961777;28;103827;-70
2023/02/14 09:00:58;;;;;;;;;;;;;;;13.77;43.90;102747.75;4962086;28;98208;-70
2023/02/14 09:03:24;;;;;;;;;;;;;;;13.81;43.75;102739.97;4960945;28;98072;-69
2023/02/14 09:05:50;;;;;;;;;;;;;;;13.85;44.00;102743.84;4961608;28;114777;-69
2023/02/14 09:08:16;;;;;;;;;;;;;;;13.89;43.83;102748.56;4960303;27;127327;-71
2023/02/14 09:10:42;;;;;;;;;;;;;;;13.94;44.15;102734.31;4963238;28;109495;-69
2023/02/14 09:13:08;;;;;;;;;;;;;;;13.98;43.78;102732.78;4935927;28;127588;-70
2023/02/14 09:15:34;;;;;;;;;;;;;;;14.03;43.81;102732.91;4928002;28;121757;-69
2023/02/14 09:17:59;;;;;;;;;;;;;;;14.09;44.13;102731.97;4937311;28;126884;-70
2023/02/14 09:20:25;;;;;;;;;;;;;;;14.14;43.94;102736.66;4941713;28;127965;-70
2023/02/14 09:22:54;;;;;;;;;;;;;;;14.17;44.11;102739.72;4942847;28;126922;-69
2023/02/14 09:25:20;;;;;;;;;;;;;;;14.22;43.74;102734.41;4952986;28;98248;-69
2023/02/14 09:27:46;;;;;;;;;;;;;;;14.27;43.69;102744.56;4927979;28;98414;-68
2023/02/14 09:30:13;;;;;;;;;;;;;;;14.30;43.81;102749.50;4937721;28;127299;-69
2023/02/14 09:32:38;;;;;;;;;;;;;;;14.34;43.75;102747.97;4939630;28;98365;-68
2023/02/14 09:40:34;;;;;;;;;;;;;;;14.45;44.06;102751.75;4955483;28;98228;-71
2023/02/14 09:43:15;;;;;;;;;;;;;;;14.47;43.60;102746.91;4956230;28;126938;-70
2023/02/14 09:45:42;;;;;;;;;;;;;;;14.49;44.03;102747.50;4937905;28;122083;-69
2023/02/14 09:48:17;;;;;;;;;;;;;;;14.49;43.78;102753.75;4940585;28;98022;-70
2023/02/14 09:50:48;;;;;;;;;;;;;;;14.50;44.02;102749.16;4943343;28;99838;-70
2023/02/14 09:53:14;;;;;;;;;;;;;;;14.50;44.06;102749.16;4940335;28;98315;-68
2023/02/14 09:55:52;;;;;;;;;;;;;;;14.50;44.06;102746.44;4963501;28;97853;-71
2023/02/14 09:58:28;;;;;;;;;;;;;;;14.49;43.70;102752.94;4945170;27;98371;-68
2023/02/14 10:01:13;;;;;;;;;;;;;;;14.49;43.96;102748.34;4921031;28;99325;-70
2023/02/14 10:03:46;;;;;;;;;;;;;;;14.52;43.69;102747.03;4956370;28;97965;-69
2023/02/14 10:06:15;;;;;;;;;;;;;;;14.55;43.99;102753.91;4939676;28;98237;-68
2023/02/14 10:09:06;;;;;;;;;;;;;;;14.58;43.87;102756.09;4959624;28;98102;-68
2023/02/14 10:11:32;;;;;;;;;;;;;;;14.63;43.62;102757.06;4934393;28;98875;-68
2023/02/14 10:14:04;;;;;;;;;;;;;;;14.68;43.91;102750.91;4944657;28;126833;-70
2023/02/14 10:16:32;;;;;;;;;;;;;;;14.70;43.60;102748.78;4959638;28;98304;-69
2023/02/14 10:19:14;;;;;;;;;;;;;;;14.72;43.92;102746.63;4943203;28;123820;-69
2023/02/14 10:22:00;;;;;;;;;;;;;;;14.73;43.93;102748.28;4944445;28;121177;-70
2023/02/14 10:25:03;;;;;;;;;;;;;;;14.74;44.04;102747.25;4977095;27;98265;-69
2023/02/14 10:27:35;;;;;;;;;;;;;;;14.76;43.70;102747.81;4965666;28;97938;-70
2023/02/14 10:30:01;;;;;;;;;;;;;;;14.77;43.83;102743.19;4942161;28;98079;-70
2023/02/14 10:32:39;;;;;;;;;;;;;;;14.78;43.70;102739.44;4975413;27;98179;-69
2023/02/14 10:35:13;;;;;;;;;;;;;;;14.77;43.68;102735.06;4971145;27;123405;-68
2023/02/14 10:37:49;;;;;;;;;;;;;;;14.78;44.06;102739.44;4975943;28;97981;-69
2023/02/14 10:40:22;;;;;;;;;;;;;;;14.78;43.99;102739.44;4960018;28;98306;-70
2023/02/14 10:43:23;;;;;;;;;;;;;;;14.78;44.07;102740.25;4976392;28;98242;-68
2023/02/14 10:46:16;;;;;;;;;;;;;;;14.82;43.87;102737.91;4978079;27;98110;-69
2023/02/14 10:48:51;;;;;;;;;;;;;;;14.82;44.08;102735.19;4965973;27;98642;-70
2023/02/14 10:51:16;;;;;;;;;;;;;;;14.82;44.31;102738.72;4976516;28;98754;-70
2023/02/14 10:54:13;;;;;;;;;;;;;;;14.84;44.03;102736.56;4973340;27;106908;-68
2023/02/14 10:56:50;;;;;;;;;;;;;;;14.88;43.93;102726.06;4973862;27;98167;-68
2023/02/14 10:59:51;;;;;;;;;;;;;;;14.92;43.86;102727.22;4974418;27;98336;-70
2023/02/14 11:02:19;;;;;;;;;;;;;;;14.93;43.70;102734.28;4975564;27;99405;-70
2023/02/14 11:04:46;;;;;;;;;;;;;;;14.92;43.94;102736.19;4943213;28;127981;-68
2023/02/14 11:07:13;;;;;;;;;;;;;;;14.93;43.97;102732.44;4960563;28;97943;-68
2023/02/14 11:09:39;;;;;;;;;;;;;;;14.92;43.93;102733.47;4973772;27;118706;-70
2023/02/14 11:12:05;;;;;;;;;;;;;;;14.93;44.22;102737.84;4941005;28;124661;-70
2023/02/14 11:14:34;;;;;;;;;;;;;;;14.93;43.73;102740.56;4939881;28;110110;-68
2023/02/14 11:17:19;;;;;;;;;;;;;;;14.95;44.06;102737.59;4962606;28;97953;-70
2023/02/14 11:19:54;;;;;;;;;;;;;;;14.95;44.00;102734.88;4960537;28;97970;-69
2023/02/14 11:22:28;;;;;;;;;;;;;;;14.97;44.20;102727.31;4965789;28;121128;-70
2023/02/14 11:25:05;;;;;;;;;;;;;;;14.98;43.98;102732.50;4944041;28;97996;-68
2023/02/14 11:27:31;;;;;;;;;;;;;;;15.00;43.99;102726.84;4941979;28;113310;-68
2023/02/14 11:29:57;;;;;;;;;;;;;;;15.01;44.17;102728.47;4964836;28;98141;-70
2023/02/14 11:32:28;;;;;;;;;;;;;;;15.03;44.06;102715.50;4960098;28;127776;-68
2023/02/14 11:35:02;;;;;;;;;;;;;;;15.06;43.85;102717.72;4968884;28;100249;-70
2023/02/14 11:37:30;;;;;;;;;;;;;;;15.09;43.96;102721.81;4945888;28;98188;-69
2023/02/14 11:39:58;;;;;;;;;;;;;;;15.11;43.86;102709.66;4948687;28;97960;-68
2023/02/14 11:42:43;;;;;;;;;;;;;;;15.15;43.88;102712.72;4944748;28;99331;-70
2023/02/14 11:45:34;;;;;;;;;;;;;;;15.18;43.96;102709.53;4979263;27;99398;-70
2023/02/14 11:48:19;;;;;;;;;;;;;;;15.20;43.89;102708.19;4978444;27;99431;-68
2023/02/14 11:51:05;;;;;;;;;;;;;;;15.20;43.77;102701.94;4975416;27;98199;-68
2023/02/14 11:53:40;;;;;;;;;;;;;;;15.22;43.82;102702.53;4946682;28;98373;-68
2023/02/14 11:56:06;;;;;;;;;;;;;;;15.23;43.96;102690.59;4978398;27;98344;-69
2023/02/14 11:58:48;;;;;;;;;;;;;;;15.26;44.04;102689.28;4943787;28;117783;-68
2023/02/14 12:01:25;;;;;;;;;;;;;;;15.27;43.95;102689.03;4947166;28;98058;-69
2023/02/14 12:03:52;;;;;;;;;;;;;;;15.29;44.03;102684.19;4938415;28;98133;-69
2023/02/14 12:06:25;;;;;;;;;;;;;;;15.30;43.83;102677.66;4945424;28;98057;-68
2023/02/14 12:08:50;;;;;;;;;;;;;;;15.32;44.08;102675.53;4944945;28;98471;-70
2023/02/14 12:11:21;;;;;;;;;;;;;;;15.35;44.05;102674.22;4944059;28;122561;-68
2023/02/14 12:13:57;;;;;;;;;;;;;;;15.36;43.87;102678.56;4980172;27;99306;-68
2023/02/14 12:16:33;;;;;;;;;;;;;;;15.38;44.04;102671.00;4961342;28;99502;-69
2023/02/14 12:19:02;;;;;;;;;;;;;;;15.43;43.85;102668.38;4978768;27;109694;-70
2023/02/14 12:21:46;;;;;;;;;;;;;;;15.46;43.92;102673.31;4944037;28;98144;-69
2023/02/14 12:24:21;;;;;;;;;;;;;;;15.43;43.64;102674.63;4973156;27;97971;-71
2023/02/14 12:26:51;;;;;;;;;;;;;;;15.44;44.06;102664.56;4959981;28;124368;-70
2023/02/14 12:29:44;;;;;;;;;;;;;;;15.43;44.02;102655.59;4976333;28;98023;-71
2023/02/14 12:32:19;;;;;;;;;;;;;;;15.45;44.07;102664.34;4948834;28;97888;-70
2023/02/14 12:34:45;;;;;;;;;;;;;;;15.47;44.13;102659.47;4978432;27;100003;-68
2023/02/14 12:37:21;;;;;;;;;;;;;;;15.49;44.05;102659.25;4961587;28;98580;-70
2023/02/14 12:39:52;;;;;;;;;;;;;;;15.51;43.85;102657.09;4961535;28;99455;-67
2023/02/14 12:42:18;;;;;;;;;;;;;;;15.53;44.03;102641.38;4978181;27;118874;-68
2023/02/14 12:45:09;;;;;;;;;;;;;;;15.57;43.86;102645.22;4977487;28;98311;-68
2023/02/14 12:48:04;;;;;;;;;;;;;;;15.61;43.66;102640.13;4961897;28;98052;-68
2023/02/14 12:50:35;;;;;;;;;;;;;;;15.66;43.99;102632.88;4961383;27;98457;-68
2023/02/14 12:53:23;;;;;;;;;;;;;;;15.70;43.82;102634.03;4980340;27;114024;-68
2023/02/14 12:56:05;;;;;;;;;;;;;;;15.75;43.79;102627.03;4979349;27;98407;-68
2023/02/14 12:58:53;;;;;;;;;;;;;;;15.77;43.90;102631.16;4978193;27;98048;-71
2023/02/14 13:01:32;;;;;;;;;;;;;;;15.80;43.81;102622.50;4975402;27;98044;-68
2023/02/14 13:04:29;;;;;;;;;;;;;;;15.81;44.15;102617.88;4972568;27;99588;-70
2023/02/14 13:06:57;;;;;;;;;;;;;;;15.81;44.03;102621.41;4977966;28;100751;-68